createdAt,value
2018-09-23T00:01:23.982Z,99.90
2018-09-23T00:03:52.557Z,99.90
2018-09-23T00:06:21.126Z,99.90
2018-09-23T00:08:49.708Z,99.90
2018-09-23T00:11:18.238Z,99.90
2018-09-23T00:13:46.791Z,99.90
2018-09-23T00:16:15.310Z,99.90
2018-09-23T00:18:43.896Z,99.90
2018-09-23T00:21:12.454Z,99.90
2018-09-23T00:23:41.117Z,99.90
2018-09-23T00:26:09.668Z,99.90
2018-09-23T00:28:38.858Z,99.90
2018-09-23T00:31:07.474Z,99.90
2018-09-23T00:33:36.097Z,99.90
2018-09-23T00:36:04.689Z,99.90
2018-09-23T00:38:33.850Z,99.90
2018-09-23T00:41:02.438Z,99.90
2018-09-23T00:43:31.038Z,99.90
2018-09-23T00:45:59.684Z,99.90
2018-09-23T00:48:28.248Z,99.90
2018-09-23T00:50:56.766Z,99.90
2018-09-23T00:53:25.357Z,99.90
2018-09-23T00:55:53.858Z,99.90
2018-09-23T00:58:22.364Z,99.90
2018-09-23T01:00:51.165Z,99.90
2018-09-23T01:03:19.661Z,99.90
2018-09-23T01:05:48.285Z,99.90
2018-09-23T01:08:16.788Z,99.90
2018-09-23T01:10:45.317Z,99.90
2018-09-23T01:13:13.801Z,99.90
2018-09-23T01:15:44.869Z,99.90
2018-09-23T01:18:13.368Z,99.90
2018-09-23T01:20:41.975Z,99.90
2018-09-23T01:23:10.498Z,99.90
2018-09-23T01:25:39.044Z,99.90
2018-09-23T01:28:07.583Z,99.90
2018-09-23T01:30:36.136Z,99.90
2018-09-23T01:33:04.656Z,99.90
2018-09-23T01:36:34.265Z,99.90
2018-09-23T01:39:02.841Z,99.90
2018-09-23T01:41:31.429Z,99.90
2018-09-23T01:43:59.936Z,99.90
2018-09-23T01:46:28.479Z,99.90
2018-09-23T01:48:57.005Z,99.90
2018-09-23T01:51:25.532Z,99.90
2018-09-23T01:53:54.059Z,99.90
2018-09-23T01:56:22.622Z,99.90
2018-09-23T01:58:51.144Z,99.90
2018-09-23T02:01:19.766Z,99.90
2018-09-23T02:03:48.307Z,99.90
2018-09-23T02:06:16.868Z,99.90
2018-09-23T02:08:45.371Z,99.90
2018-09-23T02:11:13.924Z,99.90
2018-09-23T02:13:42.432Z,99.90
2018-09-23T02:16:10.935Z,99.90
2018-09-23T02:18:39.474Z,99.90
2018-09-23T02:21:08.017Z,99.90
2018-09-23T02:23:36.649Z,99.90
2018-09-23T02:26:05.194Z,99.90
2018-09-23T02:28:33.758Z,99.90
2018-09-23T02:31:02.297Z,99.90
2018-09-23T02:33:30.835Z,99.90
2018-09-23T02:35:59.345Z,99.90
2018-09-23T02:38:27.877Z,99.90
2018-09-23T02:40:56.439Z,99.90
2018-09-23T02:43:24.969Z,99.90
2018-09-23T02:45:53.472Z,99.90
2018-09-23T02:48:21.995Z,99.90
2018-09-23T02:50:50.493Z,99.90
2018-09-23T02:53:19.027Z,99.90
2018-09-23T02:55:47.520Z,99.90
2018-09-23T02:58:16.079Z,99.90
2018-09-23T03:00:44.607Z,99.90
2018-09-23T03:03:13.152Z,99.90
2018-09-23T03:05:41.707Z,99.90
2018-09-23T03:08:10.279Z,99.90
2018-09-23T03:10:38.799Z,99.90
2018-09-23T03:13:07.303Z,99.90
2018-09-23T03:15:35.888Z,99.90
2018-09-23T03:18:04.403Z,99.90
2018-09-23T03:20:32.959Z,99.90
2018-09-23T03:23:01.451Z,99.90
2018-09-23T03:25:29.982Z,99.90
2018-09-23T03:27:58.489Z,99.90
2018-09-23T03:30:27.002Z,99.90
2018-09-23T03:32:55.505Z,99.90
2018-09-23T03:35:24.040Z,99.90
2018-09-23T03:37:52.570Z,99.90
2018-09-23T03:40:21.175Z,99.90
2018-09-23T03:42:49.778Z,99.90
2018-09-23T03:45:18.341Z,99.90
2018-09-23T03:47:46.861Z,99.90
2018-09-23T03:50:15.394Z,99.90
2018-09-23T03:52:43.912Z,99.90
2018-09-23T03:55:12.505Z,99.90
2018-09-23T03:57:41.021Z,99.90
2018-09-23T04:00:09.638Z,99.90
2018-09-23T04:02:38.158Z,99.90
2018-09-23T04:05:06.752Z,99.90
2018-09-23T04:07:35.270Z,99.90
2018-09-23T04:10:03.850Z,99.90
2018-09-23T04:12:32.374Z,99.90
2018-09-23T04:15:00.852Z,99.90
2018-09-23T04:17:29.404Z,99.90
2018-09-23T04:19:57.920Z,99.90
2018-09-23T04:22:26.486Z,99.90
2018-09-23T04:24:55.008Z,99.90
2018-09-23T04:27:23.608Z,99.90
2018-09-23T04:29:52.182Z,99.90
2018-09-23T04:32:20.777Z,99.90
2018-09-23T04:34:49.279Z,99.90
2018-09-23T04:37:17.835Z,99.90
2018-09-23T04:39:46.338Z,99.90
2018-09-23T04:42:14.934Z,99.90
2018-09-23T04:44:43.447Z,99.90
2018-09-23T04:47:11.991Z,99.90
2018-09-23T04:49:40.536Z,99.90
2018-09-23T04:52:09.087Z,99.90
2018-09-23T04:54:37.591Z,99.90
2018-09-23T04:57:06.147Z,99.90
2018-09-23T04:59:34.675Z,99.90
2018-09-23T05:02:03.287Z,99.90
2018-09-23T05:04:31.807Z,99.90
2018-09-23T05:07:00.360Z,99.90
2018-09-23T05:09:28.910Z,99.90
2018-09-23T05:11:57.435Z,99.90
2018-09-23T05:14:25.972Z,99.90
2018-09-23T05:16:54.524Z,99.90
2018-09-23T05:19:23.124Z,99.90
2018-09-23T05:21:51.675Z,99.90
2018-09-23T05:24:20.323Z,99.90
2018-09-23T05:26:48.948Z,99.90
2018-09-23T05:29:17.487Z,99.90
2018-09-23T05:31:46.064Z,99.90
2018-09-23T05:34:14.643Z,99.90
2018-09-23T05:36:43.184Z,99.90
2018-09-23T05:39:12.089Z,99.90
2018-09-23T05:41:40.671Z,99.90
2018-09-23T05:44:09.919Z,99.90
2018-09-23T05:46:38.607Z,99.90
2018-09-23T05:49:07.528Z,99.90
2018-09-23T05:51:36.142Z,99.90
2018-09-23T05:54:05.404Z,99.90
2018-09-23T05:56:34.003Z,99.90
2018-09-23T05:59:02.539Z,99.90
2018-09-23T06:01:31.128Z,99.90
2018-09-23T06:03:59.679Z,99.90
2018-09-23T06:06:28.277Z,99.90
2018-09-23T06:08:56.973Z,99.90
2018-09-23T06:11:25.613Z,99.90
2018-09-23T06:13:54.217Z,99.90
2018-09-23T06:16:22.847Z,99.90
2018-09-23T06:18:51.463Z,99.90
2018-09-23T06:21:20.091Z,99.90
2018-09-23T06:23:48.638Z,99.90
2018-09-23T06:26:17.275Z,99.90
2018-09-23T06:28:45.877Z,99.90
2018-09-23T06:31:14.511Z,99.90
2018-09-23T06:33:43.063Z,99.90
2018-09-23T06:36:11.623Z,99.90
2018-09-23T06:38:40.191Z,99.90
2018-09-23T06:41:10.199Z,99.90
2018-09-23T06:43:38.701Z,99.90
2018-09-23T06:46:07.407Z,99.90
2018-09-23T06:48:35.964Z,99.90
2018-09-23T06:51:04.665Z,99.90
2018-09-23T06:53:33.218Z,99.90
2018-09-23T06:56:01.817Z,99.90
2018-09-23T06:58:30.422Z,99.90
2018-09-23T07:00:59.051Z,99.90
2018-09-23T07:03:27.693Z,99.90
2018-09-23T07:05:56.298Z,99.90
2018-09-23T07:08:25.034Z,99.90
2018-09-23T07:10:53.695Z,99.90
2018-09-23T07:13:22.320Z,99.90
2018-09-23T07:15:50.821Z,99.90
2018-09-23T07:18:19.388Z,99.90
2018-09-23T07:20:47.919Z,99.90
2018-09-23T07:23:16.505Z,99.90
2018-09-23T07:25:45.011Z,99.90
2018-09-23T07:28:13.648Z,99.90
2018-09-23T07:30:42.276Z,99.90
2018-09-23T07:33:10.848Z,99.90
2018-09-23T07:35:39.428Z,99.90
2018-09-23T07:38:07.978Z,99.90
2018-09-23T07:40:36.491Z,99.90
2018-09-23T07:43:05.121Z,99.90
2018-09-23T07:45:33.647Z,99.90
2018-09-23T07:48:03.148Z,99.90
2018-09-23T07:50:31.655Z,99.90
2018-09-23T07:53:00.222Z,99.90
2018-09-23T07:55:28.832Z,99.90
2018-09-23T07:57:57.366Z,99.90
2018-09-23T08:00:25.930Z,99.90
2018-09-23T08:02:54.463Z,99.90
2018-09-23T08:05:23.055Z,99.90
2018-09-23T08:07:51.575Z,99.80
2018-09-23T08:10:20.134Z,99.60
2018-09-23T08:12:48.856Z,99.70
2018-09-23T08:15:17.431Z,99.90
2018-09-23T08:17:46.000Z,99.50
2018-09-23T08:20:14.646Z,99.40
2018-09-23T08:22:43.095Z,99.00
2018-09-23T08:25:11.696Z,99.00
2018-09-23T08:27:40.180Z,98.40
2018-09-23T08:32:42.715Z,97.80
2018-09-23T08:35:11.361Z,97.80
2018-09-23T08:37:39.951Z,96.80
2018-09-23T08:40:08.535Z,96.60
2018-09-23T08:42:37.111Z,96.40
2018-09-23T08:45:05.775Z,95.60
2018-09-23T08:47:34.293Z,95.70
2018-09-23T08:52:36.919Z,96.10
2018-09-23T08:55:05.524Z,96.40
2018-09-23T08:57:34.064Z,94.70
2018-09-23T09:00:02.629Z,95.50
2018-09-23T09:02:31.191Z,95.40
2018-09-23T09:04:59.749Z,95.00
2018-09-23T09:07:28.316Z,94.20
2018-09-23T09:09:56.844Z,94.30
2018-09-23T09:12:25.419Z,94.40
2018-09-23T09:14:53.935Z,93.60
2018-09-23T09:17:22.552Z,94.80
2018-09-23T09:19:51.078Z,94.10
2018-09-23T09:22:19.676Z,93.20
2018-09-23T09:24:48.223Z,92.60
2018-09-23T09:27:16.809Z,93.10
2018-09-23T09:29:45.371Z,92.30
2018-09-23T09:32:13.936Z,92.90
2018-09-23T09:34:42.464Z,92.90
2018-09-23T09:37:11.019Z,92.30
2018-09-23T09:39:39.567Z,92.40
2018-09-23T09:42:08.151Z,92.50
2018-09-23T09:44:36.737Z,92.40
2018-09-23T09:47:05.354Z,92.70
2018-09-23T09:49:33.924Z,91.70
2018-09-23T09:52:03.552Z,91.60
2018-09-23T09:54:32.111Z,93.00
2018-09-23T09:57:00.631Z,92.50
2018-09-23T09:59:29.253Z,92.70
2018-09-23T10:01:57.831Z,92.30
2018-09-23T10:04:26.399Z,92.00
2018-09-23T10:06:54.915Z,91.60
2018-09-23T10:09:23.444Z,91.50
2018-09-23T10:11:51.944Z,91.50
2018-09-23T10:14:20.470Z,91.60
2018-09-23T10:16:48.999Z,91.00
2018-09-23T10:19:17.543Z,91.20
2018-09-23T10:21:46.367Z,91.40
2018-09-23T10:24:15.178Z,91.50
2018-09-23T10:26:43.695Z,90.80
2018-09-23T10:29:12.280Z,91.30
2018-09-23T10:31:40.812Z,91.40
2018-09-23T10:34:09.393Z,90.80
2018-09-23T10:36:37.919Z,91.10
2018-09-23T10:39:08.771Z,90.60
2018-09-23T10:41:37.359Z,90.50
2018-09-23T10:44:06.322Z,91.20
2018-09-23T10:46:35.427Z,90.30
2018-09-23T10:49:04.171Z,90.80
2018-09-23T10:51:32.679Z,89.50
2018-09-23T10:54:06.040Z,90.50
2018-09-23T10:56:34.574Z,89.80
2018-09-23T10:59:04.231Z,90.10
2018-09-23T11:01:32.735Z,90.80
2018-09-23T11:04:01.291Z,91.20
2018-09-23T11:06:29.827Z,91.60
2018-09-23T11:08:58.363Z,90.70
2018-09-23T11:11:26.975Z,90.70
2018-09-23T11:13:55.538Z,91.10
2018-09-23T11:16:24.093Z,91.10
2018-09-23T11:18:52.680Z,91.50
2018-09-23T11:21:21.202Z,91.80
2018-09-23T11:23:49.696Z,91.70
2018-09-23T11:26:18.230Z,91.70
2018-09-23T11:28:46.746Z,91.90
2018-09-23T11:31:15.279Z,92.10
2018-09-23T11:33:43.767Z,92.40
2018-09-23T11:36:12.343Z,92.50
2018-09-23T11:38:40.842Z,92.60
2018-09-23T11:41:09.431Z,92.90
2018-09-23T11:43:37.948Z,93.30
2018-09-23T11:46:06.654Z,94.10
2018-09-23T11:48:35.156Z,94.80
2018-09-23T11:51:03.680Z,95.50
2018-09-23T11:53:32.282Z,95.80
2018-09-23T11:56:00.795Z,96.10
2018-09-23T11:58:29.390Z,96.20
2018-09-23T12:00:57.977Z,96.40
2018-09-23T12:03:26.532Z,96.60
2018-09-23T12:05:55.067Z,96.60
2018-09-23T12:08:23.708Z,96.40
2018-09-23T12:10:52.240Z,97.10
2018-09-23T12:13:20.779Z,97.90
2018-09-23T12:15:49.410Z,97.90
2018-09-23T12:18:17.967Z,98.40
2018-09-23T12:20:46.561Z,98.70
2018-09-23T12:23:15.108Z,99.00
2018-09-23T12:25:43.794Z,98.40
2018-09-23T12:28:12.268Z,98.40
2018-09-23T12:30:40.802Z,98.50
2018-09-23T12:33:09.420Z,99.20
2018-09-23T12:35:37.910Z,99.50
2018-09-23T12:38:06.524Z,99.10
2018-09-23T12:40:35.019Z,99.70
2018-09-23T12:43:06.091Z,99.70
2018-09-23T12:45:34.595Z,99.80
2018-09-23T12:48:03.591Z,99.60
2018-09-23T12:50:32.097Z,99.00
2018-09-23T12:53:00.603Z,98.80
2018-09-23T12:55:29.135Z,98.90
2018-09-23T12:57:57.660Z,98.70
2018-09-23T13:00:26.221Z,98.10
2018-09-23T13:02:54.788Z,98.30
2018-09-23T13:05:24.383Z,98.20
2018-09-23T13:07:52.920Z,98.20
2018-09-23T13:10:21.482Z,97.80
2018-09-23T13:12:50.004Z,98.10
2018-09-23T13:15:18.612Z,98.10
2018-09-23T13:17:47.179Z,97.50
2018-09-23T13:20:15.719Z,97.90
2018-09-23T13:22:44.260Z,98.00
2018-09-23T13:25:12.895Z,97.80
2018-09-23T13:27:41.379Z,97.60
2018-09-23T13:30:10.033Z,97.60
2018-09-23T13:32:38.572Z,97.70
2018-09-23T13:35:07.199Z,97.70
2018-09-23T13:37:35.747Z,97.50
2018-09-23T13:40:04.467Z,97.40
2018-09-23T13:42:33.020Z,97.50
2018-09-23T13:45:01.529Z,96.80
2018-09-23T13:47:30.107Z,96.80
2018-09-23T13:49:58.602Z,97.20
2018-09-23T13:52:27.182Z,97.30
2018-09-23T13:54:55.696Z,97.30
2018-09-23T13:57:24.262Z,96.80
2018-09-23T13:59:52.785Z,96.40
2018-09-23T14:02:21.334Z,96.60
2018-09-23T14:04:49.927Z,96.60
2018-09-23T14:07:18.461Z,96.80
2018-09-23T14:09:47.064Z,96.80
2018-09-23T14:12:15.624Z,96.70
2018-09-23T14:14:44.129Z,96.00
2018-09-23T14:17:12.700Z,95.90
2018-09-23T14:19:41.314Z,95.80
2018-09-23T14:22:09.936Z,95.50
2018-09-23T14:24:38.472Z,95.60
2018-09-23T14:27:07.121Z,95.20
2018-09-23T14:29:35.669Z,94.80
2018-09-23T14:32:04.249Z,94.80
2018-09-23T14:34:32.787Z,94.80
2018-09-23T14:37:06.658Z,94.60
2018-09-23T14:39:35.242Z,94.80
2018-09-23T14:42:05.219Z,94.40
2018-09-23T14:44:33.770Z,94.40
2018-09-23T14:47:02.307Z,94.70
2018-09-23T14:49:30.880Z,94.90
2018-09-23T14:51:59.384Z,95.10
2018-09-23T14:54:28.154Z,95.00
2018-09-23T14:56:56.606Z,95.20
2018-09-23T14:59:25.449Z,94.70
2018-09-23T15:01:54.037Z,94.90
2018-09-23T15:04:22.589Z,94.90
2018-09-23T15:06:51.123Z,95.20
2018-09-23T15:09:19.652Z,94.50
2018-09-23T15:11:48.199Z,94.70
2018-09-23T15:14:16.784Z,95.10
2018-09-23T15:16:45.304Z,95.30
2018-09-23T15:19:13.870Z,95.00
2018-09-23T15:21:42.464Z,95.50
2018-09-23T15:24:10.968Z,95.40
2018-09-23T15:26:39.538Z,95.40
2018-09-23T15:29:08.306Z,95.90
2018-09-23T15:31:36.836Z,95.60
2018-09-23T15:34:05.384Z,95.30
2018-09-23T15:36:33.920Z,95.60
2018-09-23T15:39:02.998Z,95.70
2018-09-23T15:41:31.560Z,96.10
2018-09-23T15:44:00.060Z,96.00
2018-09-23T15:46:28.621Z,95.90
2018-09-23T15:48:57.149Z,95.80
2018-09-23T15:51:25.708Z,96.00
2018-09-23T15:53:54.264Z,95.70
2018-09-23T15:56:22.849Z,95.70
2018-09-23T15:58:51.368Z,95.70
2018-09-23T16:01:19.941Z,95.80
2018-09-23T16:03:48.459Z,95.60
2018-09-23T16:06:17.088Z,95.70
2018-09-23T16:08:45.632Z,95.50
2018-09-23T16:11:14.184Z,95.70
2018-09-23T16:13:42.729Z,95.90
2018-09-23T16:16:11.350Z,95.90
2018-09-23T16:18:40.069Z,96.10
2018-09-23T16:21:08.673Z,96.10
2018-09-23T16:23:37.615Z,96.00
2018-09-23T16:26:06.216Z,95.70
2018-09-23T16:28:34.727Z,95.50
2018-09-23T16:31:03.399Z,95.60
2018-09-23T16:33:31.951Z,95.90
2018-09-23T16:36:00.461Z,95.50
2018-09-23T16:38:29.039Z,95.70
2018-09-23T16:40:57.552Z,95.60
2018-09-23T16:43:26.219Z,95.90
2018-09-23T16:45:54.715Z,96.00
2018-09-23T16:48:23.311Z,95.90
2018-09-23T16:50:51.833Z,96.20
2018-09-23T16:53:20.399Z,96.20
2018-09-23T16:55:48.927Z,96.30
2018-09-23T16:58:17.442Z,96.40
2018-09-23T17:00:46.078Z,96.20
2018-09-23T17:03:14.592Z,96.30
2018-09-23T17:05:43.099Z,96.40
2018-09-23T17:08:11.718Z,96.30
2018-09-23T17:10:40.267Z,96.30
2018-09-23T17:13:08.842Z,96.40
2018-09-23T17:15:37.361Z,96.50
2018-09-23T17:18:06.125Z,96.50
2018-09-23T17:20:34.677Z,96.70
2018-09-23T17:23:03.200Z,96.70
2018-09-23T17:25:31.768Z,96.80
2018-09-23T17:28:00.375Z,96.80
2018-09-23T17:30:28.902Z,96.80
2018-09-23T17:32:57.414Z,97.10
2018-09-23T17:35:25.965Z,97.00
2018-09-23T17:37:54.494Z,97.10
2018-09-23T17:40:23.794Z,97.10
2018-09-23T17:42:52.328Z,97.10
2018-09-23T17:45:20.913Z,97.20
2018-09-23T17:47:49.446Z,97.30
2018-09-23T17:50:18.045Z,97.40
2018-09-23T17:52:46.591Z,97.40
2018-09-23T17:55:15.175Z,97.40
2018-09-23T17:57:43.758Z,97.40
2018-09-23T18:00:12.639Z,97.50
2018-09-23T18:02:41.195Z,97.60
2018-09-23T18:05:09.772Z,97.50
2018-09-23T18:07:38.311Z,97.70
2018-09-23T18:10:06.976Z,97.70
2018-09-23T18:12:35.552Z,97.80
2018-09-23T18:15:04.273Z,98.20
2018-09-23T18:17:32.855Z,97.80
2018-09-23T18:20:01.451Z,98.00
2018-09-23T18:22:30.100Z,98.10
2018-09-23T18:24:58.631Z,98.20
2018-09-23T18:27:27.175Z,97.90
2018-09-23T18:29:55.747Z,97.80
2018-09-23T18:32:24.329Z,97.90
2018-09-23T18:34:52.880Z,97.80
2018-09-23T18:37:21.624Z,97.90
2018-09-23T18:39:50.098Z,98.00
2018-09-23T18:42:18.736Z,98.10
2018-09-23T18:44:47.305Z,98.20
2018-09-23T18:47:15.883Z,98.40
2018-09-23T18:49:44.495Z,98.50
2018-09-23T18:52:13.047Z,98.60
2018-09-23T18:54:46.880Z,98.80
2018-09-23T18:57:15.427Z,99.00
2018-09-23T18:59:43.974Z,99.00
2018-09-23T19:02:12.570Z,99.30
2018-09-23T19:04:41.100Z,99.50
2018-09-23T19:07:09.728Z,99.40
2018-09-23T19:09:38.308Z,99.60
2018-09-23T19:12:06.950Z,99.70
2018-09-23T19:14:35.483Z,99.90
2018-09-23T19:17:04.040Z,99.90
2018-09-23T19:19:37.828Z,99.90
2018-09-23T19:22:10.604Z,99.90
2018-09-23T19:24:39.186Z,99.90
2018-09-23T19:27:07.719Z,99.90
2018-09-23T19:29:36.248Z,99.90
2018-09-23T19:32:05.328Z,99.90
2018-09-23T19:34:33.899Z,99.90
2018-09-23T19:37:02.413Z,99.90
2018-09-23T19:39:30.991Z,99.90
2018-09-23T19:41:59.558Z,99.90
2018-09-23T19:44:28.188Z,99.90
2018-09-23T19:46:56.719Z,99.90
2018-09-23T19:49:25.371Z,99.90
2018-09-23T19:51:53.794Z,99.90
2018-09-23T19:54:22.368Z,99.90
2018-09-23T19:56:50.891Z,99.90
2018-09-23T19:59:19.492Z,99.90
2018-09-23T20:01:48.061Z,99.90
2018-09-23T20:04:16.566Z,99.90
2018-09-23T20:06:45.248Z,99.90
2018-09-23T20:09:13.779Z,99.90
2018-09-23T20:11:42.348Z,99.90
2018-09-23T20:14:10.969Z,99.90
2018-09-23T20:16:39.560Z,99.90
2018-09-23T20:19:08.948Z,99.90
2018-09-23T20:21:37.724Z,99.90
2018-09-23T20:24:06.235Z,99.90
2018-09-23T20:26:34.814Z,99.90
2018-09-23T20:29:03.402Z,99.90
2018-09-23T20:31:31.969Z,99.90
2018-09-23T20:34:00.532Z,99.90
2018-09-23T20:36:29.099Z,99.90
2018-09-23T20:38:57.712Z,99.90
2018-09-23T20:41:26.307Z,99.90
2018-09-23T20:43:54.923Z,99.90
2018-09-23T20:46:23.500Z,99.90
2018-09-23T20:48:52.014Z,99.90
2018-09-23T20:51:20.518Z,99.90
2018-09-23T20:53:49.047Z,99.90
2018-09-23T20:56:17.566Z,99.90
2018-09-23T20:58:46.142Z,99.90
2018-09-23T21:01:14.686Z,99.90
2018-09-23T21:03:43.214Z,99.90
2018-09-23T21:06:11.757Z,99.90
2018-09-23T21:08:40.283Z,99.90
2018-09-23T21:11:08.877Z,99.90
2018-09-23T21:13:37.415Z,99.90
2018-09-23T21:16:05.978Z,99.90
2018-09-23T21:18:34.540Z,99.90
2018-09-23T21:21:03.076Z,99.90
2018-09-23T21:23:31.698Z,99.90
2018-09-23T21:26:00.222Z,99.90
2018-09-23T21:28:28.838Z,99.90
2018-09-23T21:30:57.441Z,99.90
2018-09-23T21:33:26.041Z,99.90
2018-09-23T21:35:54.602Z,99.90
2018-09-23T21:38:23.136Z,99.90
2018-09-23T21:40:51.674Z,99.90
2018-09-23T21:43:20.277Z,99.90
2018-09-23T21:45:48.816Z,99.90
2018-09-23T21:48:17.496Z,99.90
2018-09-23T21:50:46.085Z,99.90
2018-09-23T21:53:14.763Z,99.90
2018-09-23T21:55:43.369Z,99.90
2018-09-23T21:58:11.960Z,99.90
2018-09-23T22:00:43.616Z,99.90
2018-09-23T22:03:13.432Z,99.90
2018-09-23T22:05:42.116Z,99.90
2018-09-23T22:08:11.578Z,99.90
2018-09-23T22:10:40.409Z,99.90
2018-09-23T22:13:09.092Z,99.90
2018-09-23T22:15:37.867Z,99.90
2018-09-23T22:18:06.397Z,99.90
2018-09-23T22:20:35.058Z,99.90
2018-09-23T22:23:03.626Z,99.90
2018-09-23T22:25:32.192Z,99.90
2018-09-23T22:28:00.756Z,99.90
2018-09-23T22:30:29.558Z,99.90
2018-09-23T22:32:58.124Z,99.90
2018-09-23T22:35:26.709Z,99.90
2018-09-23T22:37:55.323Z,99.90
2018-09-23T22:40:23.985Z,99.90
2018-09-23T22:42:52.584Z,99.90
2018-09-23T22:45:21.126Z,99.90
2018-09-23T22:47:49.692Z,99.90
2018-09-23T22:50:18.385Z,99.90
2018-09-23T22:52:46.982Z,99.90
2018-09-23T22:55:15.734Z,99.90
2018-09-23T22:57:44.298Z,99.90
2018-09-23T23:00:12.857Z,99.90
2018-09-23T23:02:41.494Z,99.90
2018-09-23T23:05:10.054Z,99.90
2018-09-23T23:07:38.690Z,99.90
2018-09-23T23:10:07.297Z,99.90
2018-09-23T23:12:35.936Z,99.90
2018-09-23T23:15:04.610Z,99.90
2018-09-23T23:17:33.208Z,99.90
2018-09-23T23:20:01.817Z,99.90
2018-09-23T23:22:30.458Z,99.90
2018-09-23T23:24:59.052Z,99.90
2018-09-23T23:27:27.659Z,99.90
2018-09-23T23:29:56.368Z,99.90
2018-09-23T23:32:25.034Z,99.90
2018-09-23T23:34:53.638Z,99.90
2018-09-23T23:37:22.239Z,99.90
2018-09-23T23:39:50.868Z,99.90
2018-09-23T23:42:19.533Z,99.90
2018-09-23T23:44:48.174Z,99.90
2018-09-23T23:47:16.784Z,99.90
2018-09-23T23:49:45.364Z,99.90
2018-09-23T23:52:13.961Z,99.90
2018-09-23T23:54:42.576Z,99.90
2018-09-23T23:57:11.183Z,99.90
2018-09-23T23:59:39.806Z,99.90
